sensor_id;sensor_type;location;lat;lon;timestamp;pressure;altitude;pressure_sealevel;temperature;humidity
64158;BME280;50449;51.528;5.076;2023-11-19T00:00:47;100806.38;;;12.89;72.02
64158;BME280;50449;51.528;5.076;2023-11-19T00:03:12;100809.66;;;12.91;72.16
64158;BME280;50449;51.528;5.076;2023-11-19T00:05:38;100804.25;;;12.91;71.83
64158;BME280;50449;51.528;5.076;2023-11-19T00:08:03;100788.78;;;12.91;72.00
64158;BME280;50449;51.528;5.076;2023-11-19T00:10:29;100783.38;;;12.91;72.04
64158;BME280;50449;51.528;5.076;2023-11-19T00:12:55;100775.22;;;12.91;72.23
64158;BME280;50449;51.528;5.076;2023-11-19T00:15:22;100756.00;;;12.93;71.79
64158;BME280;50449;51.528;5.076;2023-11-19T00:17:49;100757.63;;;12.94;71.88
64158;BME280;50449;51.528;5.076;2023-11-19T00:20:15;100763.88;;;12.94;72.08
64158;BME280;50449;51.528;5.076;2023-11-19T00:22:41;100751.97;;;12.95;71.74
64158;BME280;50449;51.528;5.076;2023-11-19T00:25:07;100757.91;;;12.97;72.33
64158;BME280;50449;51.528;5.076;2023-11-19T00:27:33;100750.34;;;12.99;71.88
64158;BME280;50449;51.528;5.076;2023-11-19T00:29:58;100745.75;;;13.00;72.25
64158;BME280;50449;51.528;5.076;2023-11-19T00:32:23;100752.00;;;13.01;71.99
64158;BME280;50449;51.528;5.076;2023-11-19T00:34:49;100744.69;;;13.01;72.14
64158;BME280;50449;51.528;5.076;2023-11-19T00:37:14;100754.19;;;13.04;72.03
64158;BME280;50449;51.528;5.076;2023-11-19T00:39:40;100750.16;;;13.06;72.10
64158;BME280;50449;51.528;5.076;2023-11-19T00:42:05;100770.50;;;13.09;72.18
64158;BME280;50449;51.528;5.076;2023-11-19T00:44:31;100763.19;;;13.09;72.21
64158;BME280;50449;51.528;5.076;2023-11-19T00:46:56;100766.47;;;13.11;72.08
64158;BME280;50449;51.528;5.076;2023-11-19T00:49:21;100774.59;;;13.11;71.95
64158;BME280;50449;51.528;5.076;2023-11-19T00:51:46;100771.63;;;13.13;72.08
64158;BME280;50449;51.528;5.076;2023-11-19T00:54:12;100773.81;;;13.16;71.83
64158;BME280;50449;51.528;5.076;2023-11-19T00:56:37;100766.25;;;13.18;71.92
64158;BME280;50449;51.528;5.076;2023-11-19T00:59:02;100760.81;;;13.18;71.85
64158;BME280;50449;51.528;5.076;2023-11-19T01:01:28;100772.50;;;13.18;71.93
64158;BME280;50449;51.528;5.076;2023-11-19T01:03:54;100770.59;;;13.19;71.99
64158;BME280;50449;51.528;5.076;2023-11-19T01:06:27;100772.22;;;13.20;71.69
64158;BME280;50449;51.528;5.076;2023-11-19T01:08:54;100774.91;;;13.20;72.04
64158;BME280;50449;51.528;5.076;2023-11-19T01:11:20;100753.78;;;13.22;71.88
64158;BME280;50449;51.528;5.076;2023-11-19T01:13:46;100742.69;;;13.24;71.82
64158;BME280;50449;51.528;5.076;2023-11-19T01:16:11;100730.75;;;13.25;72.05
64158;BME280;50449;51.528;5.076;2023-11-19T01:18:37;100722.34;;;13.26;72.11
64158;BME280;50449;51.528;5.076;2023-11-19T01:21:03;100715.63;;;13.29;71.97
64158;BME280;50449;51.528;5.076;2023-11-19T01:23:28;100709.91;;;13.30;71.97
64158;BME280;50449;51.528;5.076;2023-11-19T01:25:53;100723.78;;;13.34;71.61
64158;BME280;50449;51.528;5.076;2023-11-19T01:28:19;100709.41;;;13.33;71.99
64158;BME280;50449;51.528;5.076;2023-11-19T01:30:44;100727.31;;;13.34;71.55
64158;BME280;50449;51.528;5.076;2023-11-19T01:33:09;100732.75;;;13.34;71.48
64158;BME280;50449;51.528;5.076;2023-11-19T01:35:34;100752.53;;;13.35;71.49
64158;BME280;50449;51.528;5.076;2023-11-19T01:38:00;100751.50;;;13.36;71.77
64158;BME280;50449;51.528;5.076;2023-11-19T01:40:25;100751.22;;;13.37;71.86
64158;BME280;50449;51.528;5.076;2023-11-19T01:42:50;100744.72;;;13.38;71.89
64158;BME280;50449;51.528;5.076;2023-11-19T01:45:26;100739.81;;;13.40;72.24
64158;BME280;50449;51.528;5.076;2023-11-19T01:47:53;100739.56;;;13.42;71.82
64158;BME280;50449;51.528;5.076;2023-11-19T01:50:18;100752.91;;;13.44;71.95
64158;BME280;50449;51.528;5.076;2023-11-19T01:52:44;100739.06;;;13.45;71.33
64158;BME280;50449;51.528;5.076;2023-11-19T01:55:10;100745.31;;;13.46;71.78
64158;BME280;50449;51.528;5.076;2023-11-19T01:57:35;100746.13;;;13.46;71.44
64158;BME280;50449;51.528;5.076;2023-11-19T02:00:02;100745.31;;;13.46;71.33
64158;BME280;50449;51.528;5.076;2023-11-19T02:02:28;100745.84;;;13.48;71.91
64158;BME280;50449;51.528;5.076;2023-11-19T02:04:54;100737.72;;;13.48;71.53
64158;BME280;50449;51.528;5.076;2023-11-19T02:07:19;100729.03;;;13.46;71.07
64158;BME280;50449;51.528;5.076;2023-11-19T02:09:45;100738.25;;;13.45;71.12
64158;BME280;50449;51.528;5.076;2023-11-19T02:12:10;100727.91;;;13.41;71.29
64158;BME280;50449;51.528;5.076;2023-11-19T02:14:40;100739.56;;;13.42;71.68
64158;BME280;50449;51.528;5.076;2023-11-19T02:17:05;100737.44;;;13.44;71.57
64158;BME280;50449;51.528;5.076;2023-11-19T02:19:30;100733.91;;;13.44;71.20
64158;BME280;50449;51.528;5.076;2023-11-19T02:21:55;100730.38;;;13.43;71.31
64158;BME280;50449;51.528;5.076;2023-11-19T02:24:24;100738.50;;;13.43;71.23
64158;BME280;50449;51.528;5.076;2023-11-19T02:27:10;100733.09;;;13.43;71.32
64158;BME280;50449;51.528;5.076;2023-11-19T02:29:38;100731.69;;;13.40;70.96
64158;BME280;50449;51.528;5.076;2023-11-19T02:32:04;100731.69;;;13.40;71.48
64158;BME280;50449;51.528;5.076;2023-11-19T02:34:29;100738.75;;;13.41;71.05
64158;BME280;50449;51.528;5.076;2023-11-19T02:36:54;100734.97;;;13.42;71.24
64158;BME280;50449;51.528;5.076;2023-11-19T02:39:20;100712.69;;;13.40;71.51
64158;BME280;50449;51.528;5.076;2023-11-19T02:41:47;100717.06;;;13.41;71.17
64158;BME280;50449;51.528;5.076;2023-11-19T02:44:12;100726.25;;;13.40;71.21
64158;BME280;50449;51.528;5.076;2023-11-19T02:46:38;100726.25;;;13.40;71.03
64158;BME280;50449;51.528;5.076;2023-11-19T02:49:07;100720.03;;;13.40;70.93
64158;BME280;50449;51.528;5.076;2023-11-19T02:51:32;100727.34;;;13.39;71.42
64158;BME280;50449;51.528;5.076;2023-11-19T02:53:58;100720.84;;;13.40;71.15
64158;BME280;50449;51.528;5.076;2023-11-19T02:56:23;100717.63;;;13.44;71.01
64158;BME280;50449;51.528;5.076;2023-11-19T02:58:51;100716.81;;;13.43;71.02
64158;BME280;50449;51.528;5.076;2023-11-19T03:01:24;100725.75;;;13.44;71.04
64158;BME280;50449;51.528;5.076;2023-11-19T03:03:54;100719.78;;;13.41;71.25
64158;BME280;50449;51.528;5.076;2023-11-19T03:06:22;100722.50;;;13.41;70.92
64158;BME280;50449;51.528;5.076;2023-11-19T03:08:48;100724.63;;;13.39;70.91
64158;BME280;50449;51.528;5.076;2023-11-19T03:11:13;100736.31;;;13.40;71.32
64158;BME280;50449;51.528;5.076;2023-11-19T03:13:39;100747.16;;;13.40;71.11
64158;BME280;50449;51.528;5.076;2023-11-19T03:16:04;100728.44;;;13.38;71.05
64158;BME280;50449;51.528;5.076;2023-11-19T03:18:29;100722.19;;;13.38;70.50
64158;BME280;50449;51.528;5.076;2023-11-19T03:20:55;100737.63;;;13.37;71.11
64158;BME280;50449;51.528;5.076;2023-11-19T03:23:20;100735.75;;;13.38;70.73
64158;BME280;50449;51.528;5.076;2023-11-19T03:25:45;100750.41;;;13.37;71.07
64158;BME280;50449;51.528;5.076;2023-11-19T03:28:11;100741.44;;;13.36;70.79
64158;BME280;50449;51.528;5.076;2023-11-19T03:30:37;100727.06;;;13.36;70.70
64158;BME280;50449;51.528;5.076;2023-11-19T03:33:03;100723.50;;;13.35;70.79
64158;BME280;50449;51.528;5.076;2023-11-19T03:35:28;100718.38;;;13.34;70.59
64158;BME280;50449;51.528;5.076;2023-11-19T03:37:54;100715.66;;;13.34;70.74
64158;BME280;50449;51.528;5.076;2023-11-19T03:40:19;100721.09;;;13.34;70.60
64158;BME280;50449;51.528;5.076;2023-11-19T03:42:47;100729.22;;;13.34;70.80
64158;BME280;50449;51.528;5.076;2023-11-19T03:45:13;100721.09;;;13.34;70.66
64158;BME280;50449;51.528;5.076;2023-11-19T03:47:38;100713.19;;;13.32;70.83
64158;BME280;50449;51.528;5.076;2023-11-19T03:50:04;100721.63;;;13.31;70.82
64158;BME280;50449;51.528;5.076;2023-11-19T03:52:30;100720.53;;;13.32;70.59
64158;BME280;50449;51.528;5.076;2023-11-19T03:54:55;100716.44;;;13.29;70.62
64158;BME280;50449;51.528;5.076;2023-11-19T03:57:21;100719.16;;;13.29;70.67
64158;BME280;50449;51.528;5.076;2023-11-19T03:59:46;100721.88;;;13.29;70.59
64158;BME280;50449;51.528;5.076;2023-11-19T04:02:12;100718.34;;;13.29;70.47
64158;BME280;50449;51.528;5.076;2023-11-19T04:04:37;100733.22;;;13.26;70.26
64158;BME280;50449;51.528;5.076;2023-11-19T04:07:04;100734.06;;;13.27;70.71
64158;BME280;50449;51.528;5.076;2023-11-19T04:09:29;100726.13;;;13.25;70.50
64158;BME280;50449;51.528;5.076;2023-11-19T04:11:55;100748.91;;;13.24;70.55
64158;BME280;50449;51.528;5.076;2023-11-19T04:14:20;100725.59;;;13.23;70.68
64158;BME280;50449;51.528;5.076;2023-11-19T04:16:46;100738.88;;;13.25;70.42
64158;BME280;50449;51.528;5.076;2023-11-19T04:19:11;100740.22;;;13.22;70.18
64158;BME280;50449;51.528;5.076;2023-11-19T04:21:37;100747.78;;;13.20;70.58
64158;BME280;50449;51.528;5.076;2023-11-19T04:24:02;100744.03;;;13.21;70.69
64158;BME280;50449;51.528;5.076;2023-11-19T04:26:27;100744.84;;;13.21;70.22
64158;BME280;50449;51.528;5.076;2023-11-19T04:28:52;100751.06;;;13.22;70.25
64158;BME280;50449;51.528;5.076;2023-11-19T04:31:18;100742.94;;;13.22;70.25
64158;BME280;50449;51.528;5.076;2023-11-19T04:33:43;100740.22;;;13.22;70.33
64158;BME280;50449;51.528;5.076;2023-11-19T04:36:09;100740.50;;;13.20;70.38
64158;BME280;50449;51.528;5.076;2023-11-19T04:38:34;100736.94;;;13.20;70.17
64158;BME280;50449;51.528;5.076;2023-11-19T04:40:59;100743.47;;;13.19;70.28
64158;BME280;50449;51.528;5.076;2023-11-19T04:43:25;100747.25;;;13.18;70.19
64158;BME280;50449;51.528;5.076;2023-11-19T04:45:50;100741.00;;;13.17;70.13
64158;BME280;50449;51.528;5.076;2023-11-19T04:48:15;100752.13;;;13.16;70.02
64158;BME280;50449;51.528;5.076;2023-11-19T04:50:41;100759.69;;;13.14;70.42
64158;BME280;50449;51.528;5.076;2023-11-19T04:53:06;100751.81;;;13.12;70.27
64158;BME280;50449;51.528;5.076;2023-11-19T04:55:31;100749.94;;;13.13;70.15
64158;BME280;50449;51.528;5.076;2023-11-19T04:57:56;100754.28;;;13.14;70.39
64158;BME280;50449;51.528;5.076;2023-11-19T05:00:22;100771.34;;;13.14;70.42
64158;BME280;50449;51.528;5.076;2023-11-19T05:02:47;100763.22;;;13.14;69.99
64158;BME280;50449;51.528;5.076;2023-11-19T05:05:12;100765.13;;;13.14;70.39
64158;BME280;50449;51.528;5.076;2023-11-19T05:07:38;100767.59;;;13.15;70.35
64158;BME280;50449;51.528;5.076;2023-11-19T05:10:03;100756.97;;;13.14;69.93
64158;BME280;50449;51.528;5.076;2023-11-19T05:12:29;100762.66;;;13.12;70.10
64158;BME280;50449;51.528;5.076;2023-11-19T05:14:54;100768.09;;;13.12;70.17
64158;BME280;50449;51.528;5.076;2023-11-19T05:17:20;100768.09;;;13.12;70.33
64158;BME280;50449;51.528;5.076;2023-11-19T05:19:45;100760.78;;;13.13;70.06
64158;BME280;50449;51.528;5.076;2023-11-19T05:22:10;100756.41;;;13.12;69.95
64158;BME280;50449;51.528;5.076;2023-11-19T05:24:35;100758.31;;;13.11;69.88
64158;BME280;50449;51.528;5.076;2023-11-19T05:27:01;100768.34;;;13.11;70.01
64158;BME280;50449;51.528;5.076;2023-11-19T05:29:26;100766.69;;;13.10;69.98
64158;BME280;50449;51.528;5.076;2023-11-19T05:31:52;100764.28;;;13.08;69.71
64158;BME280;50449;51.528;5.076;2023-11-19T05:34:17;100761.81;;;13.07;69.71
64158;BME280;50449;51.528;5.076;2023-11-19T05:36:42;100757.47;;;13.06;69.86
64158;BME280;50449;51.528;5.076;2023-11-19T05:39:08;100772.66;;;13.07;69.92
64158;BME280;50449;51.528;5.076;2023-11-19T05:41:33;100765.84;;;13.04;69.92
64158;BME280;50449;51.528;5.076;2023-11-19T05:43:59;100767.47;;;13.05;70.05
64158;BME280;50449;51.528;5.076;2023-11-19T05:46:24;100761.25;;;13.05;69.71
64158;BME280;50449;51.528;5.076;2023-11-19T05:48:52;100759.34;;;13.05;69.96
64158;BME280;50449;51.528;5.076;2023-11-19T05:51:17;100780.22;;;13.05;69.74
64158;BME280;50449;51.528;5.076;2023-11-19T05:53:42;100772.38;;;13.03;70.03
64158;BME280;50449;51.528;5.076;2023-11-19T05:56:08;100775.88;;;13.04;70.08
64158;BME280;50449;51.528;5.076;2023-11-19T05:58:34;100786.72;;;13.04;69.91
64158;BME280;50449;51.528;5.076;2023-11-19T06:01:00;100791.34;;;13.03;69.74
64158;BME280;50449;51.528;5.076;2023-11-19T06:03:26;100786.47;;;13.05;70.02
64158;BME280;50449;51.528;5.076;2023-11-19T06:05:51;100781.88;;;13.06;69.82
64158;BME280;50449;51.528;5.076;2023-11-19T06:08:17;100772.91;;;13.05;69.58
64158;BME280;50449;51.528;5.076;2023-11-19T06:10:43;100775.06;;;13.03;69.62
64158;BME280;50449;51.528;5.076;2023-11-19T06:13:08;100768.81;;;13.03;69.67
64158;BME280;50449;51.528;5.076;2023-11-19T06:15:36;100756.91;;;13.04;69.93
64158;BME280;50449;51.528;5.076;2023-11-19T06:18:01;100761.25;;;13.05;69.86
64158;BME280;50449;51.528;5.076;2023-11-19T06:20:28;100760.69;;;13.03;69.59
64158;BME280;50449;51.528;5.076;2023-11-19T06:22:54;100765.28;;;13.02;69.71
64158;BME280;50449;51.528;5.076;2023-11-19T06:25:19;100756.34;;;13.02;69.80
64158;BME280;50449;51.528;5.076;2023-11-19T06:27:44;100766.38;;;13.01;69.78
64158;BME280;50449;51.528;5.076;2023-11-19T06:30:10;100766.38;;;13.01;69.69
64158;BME280;50449;51.528;5.076;2023-11-19T06:32:36;100779.13;;;13.01;69.96
64158;BME280;50449;51.528;5.076;2023-11-19T06:35:01;100783.47;;;13.02;69.59
64158;BME280;50449;51.528;5.076;2023-11-19T06:37:29;100771.78;;;13.01;69.45
64158;BME280;50449;51.528;5.076;2023-11-19T06:39:54;100771.00;;;13.01;69.69
64158;BME280;50449;51.528;5.076;2023-11-19T06:42:19;100773.69;;;13.01;69.53
64158;BME280;50449;51.528;5.076;2023-11-19T06:44:45;100777.47;;;12.99;69.55
64158;BME280;50449;51.528;5.076;2023-11-19T06:47:10;100780.19;;;12.99;69.27
64158;BME280;50449;51.528;5.076;2023-11-19T06:49:35;100786.13;;;12.96;69.42
64158;BME280;50449;51.528;5.076;2023-11-19T06:52:00;100782.84;;;12.94;69.32
64158;BME280;50449;51.528;5.076;2023-11-19T06:54:26;100786.66;;;12.93;69.72
64158;BME280;50449;51.528;5.076;2023-11-19T06:56:51;100792.88;;;12.94;69.35
64158;BME280;50449;51.528;5.076;2023-11-19T06:59:16;100800.19;;;12.93;69.62
64158;BME280;50449;51.528;5.076;2023-11-19T07:01:41;100802.09;;;12.93;69.32
64158;BME280;50449;51.528;5.076;2023-11-19T07:04:11;100802.09;;;12.93;69.58
64158;BME280;50449;51.528;5.076;2023-11-19T07:06:37;100811.84;;;12.94;69.75
64158;BME280;50449;51.528;5.076;2023-11-19T07:09:03;100819.19;;;12.93;69.67
64158;BME280;50449;51.528;5.076;2023-11-19T07:11:38;100815.66;;;12.93;69.61
64158;BME280;50449;51.528;5.076;2023-11-19T07:14:03;100815.91;;;12.91;69.22
64158;BME280;50449;51.528;5.076;2023-11-19T07:16:29;100825.13;;;12.90;69.60
64158;BME280;50449;51.528;5.076;2023-11-19T07:18:54;100823.47;;;12.89;69.43
64158;BME280;50449;51.528;5.076;2023-11-19T07:21:20;100828.63;;;12.91;69.36
64158;BME280;50449;51.528;5.076;2023-11-19T07:23:45;100828.88;;;12.89;69.21
64158;BME280;50449;51.528;5.076;2023-11-19T07:26:11;100826.44;;;12.88;69.36
64158;BME280;50449;51.528;5.076;2023-11-19T07:28:37;100827.25;;;12.88;69.56
64158;BME280;50449;51.528;5.076;2023-11-19T07:31:02;100827.84;;;12.90;69.56
64158;BME280;50449;51.528;5.076;2023-11-19T07:33:28;100828.63;;;12.91;69.44
64158;BME280;50449;51.528;5.076;2023-11-19T07:35:54;100827.84;;;12.90;69.60
64158;BME280;50449;51.528;5.076;2023-11-19T07:38:20;100824.03;;;12.91;69.29
64158;BME280;50449;51.528;5.076;2023-11-19T07:40:45;100824.28;;;12.90;69.17
64158;BME280;50449;51.528;5.076;2023-11-19T07:43:10;100827.25;;;12.88;68.91
64158;BME280;50449;51.528;5.076;2023-11-19T07:45:35;100822.09;;;12.87;69.24
64158;BME280;50449;51.528;5.076;2023-11-19T07:48:01;100826.94;;;12.85;69.18
64158;BME280;50449;51.528;5.076;2023-11-19T07:50:26;100828.84;;;12.84;69.40
64158;BME280;50449;51.528;5.076;2023-11-19T07:52:52;100830.50;;;12.85;69.41
64158;BME280;50449;51.528;5.076;2023-11-19T07:55:17;100820.69;;;12.84;69.17
64158;BME280;50449;51.528;5.076;2023-11-19T07:57:42;100828.03;;;12.84;69.33
64158;BME280;50449;51.528;5.076;2023-11-19T08:00:07;100833.44;;;12.84;69.29
64158;BME280;50449;51.528;5.076;2023-11-19T08:02:37;100832.63;;;12.83;69.17
64158;BME280;50449;51.528;5.076;2023-11-19T08:05:02;100833.69;;;12.82;69.23
64158;BME280;50449;51.528;5.076;2023-11-19T08:07:28;100834.78;;;12.81;69.37
64158;BME280;50449;51.528;5.076;2023-11-19T08:09:53;100835.88;;;12.80;69.45
64158;BME280;50449;51.528;5.076;2023-11-19T08:12:18;100835.88;;;12.80;69.37
64158;BME280;50449;51.528;5.076;2023-11-19T08:14:43;100835.03;;;12.80;69.25
64158;BME280;50449;51.528;5.076;2023-11-19T08:17:11;100830.44;;;12.80;69.34
64158;BME280;50449;51.528;5.076;2023-11-19T08:19:37;100838.00;;;12.78;69.39
64158;BME280;50449;51.528;5.076;2023-11-19T08:22:02;100837.44;;;12.76;69.12
64158;BME280;50449;51.528;5.076;2023-11-19T08:24:27;100830.13;;;12.76;69.11
64158;BME280;50449;51.528;5.076;2023-11-19T08:26:53;100837.44;;;12.76;69.39
64158;BME280;50449;51.528;5.076;2023-11-19T08:29:18;100831.78;;;12.77;69.23
64158;BME280;50449;51.528;5.076;2023-11-19T08:31:44;100838.25;;;12.76;69.02
64158;BME280;50449;51.528;5.076;2023-11-19T08:34:09;100825.78;;;12.75;69.34
64158;BME280;50449;51.528;5.076;2023-11-19T08:36:36;100825.22;;;12.73;69.28
64158;BME280;50449;51.528;5.076;2023-11-19T08:39:01;100836.34;;;12.77;69.37
64158;BME280;50449;51.528;5.076;2023-11-19T08:41:28;100842.63;;;12.77;69.27
64158;BME280;50449;51.528;5.076;2023-11-19T08:43:53;100832.00;;;12.76;68.77
64158;BME280;50449;51.528;5.076;2023-11-19T08:46:18;100839.56;;;12.74;69.31
64158;BME280;50449;51.528;5.076;2023-11-19T08:48:44;100847.94;;;12.72;69.16
64158;BME280;50449;51.528;5.076;2023-11-19T08:51:09;100843.38;;;12.73;69.07
64158;BME280;50449;51.528;5.076;2023-11-19T08:53:34;100839.56;;;12.74;69.31
64158;BME280;50449;51.528;5.076;2023-11-19T08:56:00;100829.81;;;12.73;69.38
64158;BME280;50449;51.528;5.076;2023-11-19T08:58:27;100842.53;;;12.72;69.40
64158;BME280;50449;51.528;5.076;2023-11-19T09:00:53;100856.06;;;12.72;69.15
64158;BME280;50449;51.528;5.076;2023-11-19T09:03:18;100849.84;;;12.72;69.40
64158;BME280;50449;51.528;5.076;2023-11-19T09:05:43;100848.22;;;12.71;69.42
64158;BME280;50449;51.528;5.076;2023-11-19T09:08:08;100848.78;;;12.73;69.48
64158;BME280;50449;51.528;5.076;2023-11-19T09:10:34;100846.91;;;12.73;69.46
64158;BME280;50449;51.528;5.076;2023-11-19T09:12:59;100843.91;;;12.75;69.45
64158;BME280;50449;51.528;5.076;2023-11-19T09:15:24;100843.09;;;12.74;69.54
64158;BME280;50449;51.528;5.076;2023-11-19T09:17:49;100834.72;;;12.76;69.00
64158;BME280;50449;51.528;5.076;2023-11-19T09:20:15;100839.56;;;12.74;69.35
64158;BME280;50449;51.528;5.076;2023-11-19T09:22:41;100832.25;;;12.74;68.81
64158;BME280;50449;51.528;5.076;2023-11-19T09:25:06;100826.25;;;12.72;69.04
64158;BME280;50449;51.528;5.076;2023-11-19T09:27:31;100837.38;;;12.71;69.24
64158;BME280;50449;51.528;5.076;2023-11-19T09:29:57;100835.47;;;12.71;69.63
64158;BME280;50449;51.528;5.076;2023-11-19T09:32:23;100828.16;;;12.72;69.25
64158;BME280;50449;51.528;5.076;2023-11-19T09:34:49;100833.34;;;12.73;69.24
64158;BME280;50449;51.528;5.076;2023-11-19T09:37:14;100836.06;;;12.73;69.48
64158;BME280;50449;51.528;5.076;2023-11-19T09:39:39;100841.19;;;12.75;69.73
64158;BME280;50449;51.528;5.076;2023-11-19T09:42:08;100833.06;;;12.75;69.49
64158;BME280;50449;51.528;5.076;2023-11-19T09:44:33;100841.78;;;12.77;69.34
64158;BME280;50449;51.528;5.076;2023-11-19T09:46:58;100830.69;;;12.78;69.58
64158;BME280;50449;51.528;5.076;2023-11-19T09:49:24;100826.06;;;12.79;69.41
64158;BME280;50449;51.528;5.076;2023-11-19T09:51:51;100832.06;;;12.81;69.23
64158;BME280;50449;51.528;5.076;2023-11-19T09:54:16;100840.44;;;12.80;69.36
64158;BME280;50449;51.528;5.076;2023-11-19T09:56:42;100839.38;;;12.81;69.36
64158;BME280;50449;51.528;5.076;2023-11-19T09:59:08;100839.13;;;12.82;69.53
64158;BME280;50449;51.528;5.076;2023-11-19T10:01:35;100833.19;;;12.85;69.59
64158;BME280;50449;51.528;5.076;2023-11-19T10:04:01;100834.81;;;12.86;69.27
64158;BME280;50449;51.528;5.076;2023-11-19T10:06:27;100843.78;;;12.87;69.60
64158;BME280;50449;51.528;5.076;2023-11-19T10:08:52;100832.94;;;12.87;69.46
64158;BME280;50449;51.528;5.076;2023-11-19T10:11:18;100841.63;;;12.89;69.53
64158;BME280;50449;51.528;5.076;2023-11-19T10:13:43;100836.22;;;12.89;69.54
64158;BME280;50449;51.528;5.076;2023-11-19T10:16:10;100825.94;;;12.91;69.29
64158;BME280;50449;51.528;5.076;2023-11-19T10:18:37;100823.78;;;12.93;69.63
64158;BME280;50449;51.528;5.076;2023-11-19T10:21:05;100832.47;;;12.95;69.23
64158;BME280;50449;51.528;5.076;2023-11-19T10:23:31;100827.59;;;12.97;69.47
64158;BME280;50449;51.528;5.076;2023-11-19T10:26:03;100819.47;;;12.97;68.94
64158;BME280;50449;51.528;5.076;2023-11-19T10:28:38;100821.63;;;12.95;69.47
64158;BME280;50449;51.528;5.076;2023-11-19T10:31:04;100821.38;;;12.96;69.38
64158;BME280;50449;51.528;5.076;2023-11-19T10:33:30;100816.75;;;12.97;69.47
64158;BME280;50449;51.528;5.076;2023-11-19T10:35:56;100840.91;;;12.98;69.58
64158;BME280;50449;51.528;5.076;2023-11-19T10:38:21;100839.88;;;13.05;69.64
64158;BME280;50449;51.528;5.076;2023-11-19T10:40:47;100839.34;;;13.08;69.54
64158;BME280;50449;51.528;5.076;2023-11-19T10:43:12;100837.22;;;13.10;69.45
64158;BME280;50449;51.528;5.076;2023-11-19T10:45:38;100836.44;;;13.14;69.42
64158;BME280;50449;51.528;5.076;2023-11-19T10:48:04;100823.75;;;13.20;69.12
64158;BME280;50449;51.528;5.076;2023-11-19T10:50:33;100829.50;;;13.24;69.11
64158;BME280;50449;51.528;5.076;2023-11-19T10:52:59;100821.91;;;13.26;69.00
64158;BME280;50449;51.528;5.076;2023-11-19T10:55:28;100826.28;;;13.27;68.99
64158;BME280;50449;51.528;5.076;2023-11-19T10:58:04;100831.72;;;13.27;69.12
64158;BME280;50449;51.528;5.076;2023-11-19T11:00:43;100827.34;;;13.26;68.97
64158;BME280;50449;51.528;5.076;2023-11-19T11:03:11;100822.97;;;13.25;68.80
64158;BME280;50449;51.528;5.076;2023-11-19T11:05:36;100817.53;;;13.25;69.07
64158;BME280;50449;51.528;5.076;2023-11-19T11:08:03;100825.69;;;13.25;69.25
64158;BME280;50449;51.528;5.076;2023-11-19T11:10:30;100837.34;;;13.25;69.12
64158;BME280;50449;51.528;5.076;2023-11-19T11:12:59;100835.22;;;13.27;69.20
64158;BME280;50449;51.528;5.076;2023-11-19T11:15:26;100821.66;;;13.27;68.98
64158;BME280;50449;51.528;5.076;2023-11-19T11:17:54;100829.81;;;13.27;69.30
64158;BME280;50449;51.528;5.076;2023-11-19T11:20:22;100821.66;;;13.27;69.05
64158;BME280;50449;51.528;5.076;2023-11-19T11:28:18;100810.75;;;13.22;69.24
64158;BME280;50449;51.528;5.076;2023-11-19T11:36:05;100807.50;;;13.25;69.35
64158;BME280;50449;51.528;5.076;2023-11-19T11:38:35;100807.28;;;13.27;69.46
64158;BME280;50449;51.528;5.076;2023-11-19T11:41:19;100799.72;;;13.29;69.69
64158;BME280;50449;51.528;5.076;2023-11-19T11:43:45;100798.91;;;13.28;69.07
64158;BME280;50449;51.528;5.076;2023-11-19T11:49:03;100802.69;;;13.27;69.35
64158;BME280;50449;51.528;5.076;2023-11-19T11:57:00;100777.66;;;13.25;69.48
64158;BME280;50449;51.528;5.076;2023-11-19T11:59:25;100772.84;;;13.27;69.56
64158;BME280;50449;51.528;5.076;2023-11-19T12:01:58;100773.41;;;13.29;69.79
64158;BME280;50449;51.528;5.076;2023-11-19T12:04:26;100784.28;;;13.34;69.58
64158;BME280;50449;51.528;5.076;2023-11-19T12:07:06;100774.00;;;13.36;69.49
64158;BME280;50449;51.528;5.076;2023-11-19T12:09:33;100766.97;;;13.40;69.54
64158;BME280;50449;51.528;5.076;2023-11-19T12:14:59;100759.66;;;13.41;69.44
64158;BME280;50449;51.528;5.076;2023-11-19T12:22:27;100752.34;;;13.41;69.44
64158;BME280;50449;51.528;5.076;2023-11-19T12:24:53;100756.66;;;13.42;69.42
64158;BME280;50449;51.528;5.076;2023-11-19T12:27:19;100768.38;;;13.43;69.63
64158;BME280;50449;51.528;5.076;2023-11-19T12:29:47;100768.38;;;13.43;69.27
64158;BME280;50449;51.528;5.076;2023-11-19T12:32:12;100775.41;;;13.44;69.26
64158;BME280;50449;51.528;5.076;2023-11-19T12:34:38;100777.03;;;13.45;69.64
64158;BME280;50449;51.528;5.076;2023-11-19T12:37:03;100770.53;;;13.46;69.37
64158;BME280;50449;51.528;5.076;2023-11-19T12:39:29;100772.44;;;13.46;69.38
64158;BME280;50449;51.528;5.076;2023-11-19T12:41:55;100766.19;;;13.45;69.62
64158;BME280;50449;51.528;5.076;2023-11-19T12:44:20;100763.22;;;13.47;69.32
64158;BME280;50449;51.528;5.076;2023-11-19T12:46:45;100774.88;;;13.47;69.60
64158;BME280;50449;51.528;5.076;2023-11-19T12:49:11;100770.28;;;13.48;69.52
64158;BME280;50449;51.528;5.076;2023-11-19T12:51:36;100773.81;;;13.48;69.38
64158;BME280;50449;51.528;5.076;2023-11-19T12:54:01;100771.34;;;13.47;69.68
64158;BME280;50449;51.528;5.076;2023-11-19T12:56:27;100766.75;;;13.47;69.71
64158;BME280;50449;51.528;5.076;2023-11-19T12:58:52;100766.47;;;13.44;69.77
64158;BME280;50449;51.528;5.076;2023-11-19T13:01:18;100778.94;;;13.45;69.98
64158;BME280;50449;51.528;5.076;2023-11-19T13:03:44;100779.75;;;13.45;69.84
64158;BME280;50449;51.528;5.076;2023-11-19T13:06:13;100774.88;;;13.47;69.80
64158;BME280;50449;51.528;5.076;2023-11-19T13:08:40;100768.09;;;13.45;69.90
64158;BME280;50449;51.528;5.076;2023-11-19T13:11:06;100767.84;;;13.46;69.67